Wetterdaten: Montag, 19.11.2012
Datum Zeit Temperatur Luftfeuchte Regen Wind Richtung Richtung Taupunkt Windchill Windben
19.11.2012 00:00 0,0 C 94 % 0,0 l/m 0,0 km/h (0 Bft) N 360 -0,8 C -0,8 C 0,0 km/h (0 Bft)
19.11.2012 00:05 -0,1 C 93 % 0,0 l/m 0,0 km/h (0 Bft) N 360 -1,1 C -0,8 C 0,0 km/h (0 Bft)
19.11.2012 00:10 -0,6 C 93 % 0,0 l/m 0,0 km/h (0 Bft) W 270 -1,6 C -1,0 C 0,0 km/h (0 Bft)
19.11.2012 00:15 -0,7 C 93 % 0,0 l/m 0,0 km/h (0 Bft) N 360 -1,7 C -1,1 C 0,0 km/h (0 Bft)
19.11.2012 00:20 -0,6 C 93 % 0,0 l/m 0,0 km/h (0 Bft) N 360 -1,6 C -1,4 C 0,0 km/h (0 Bft)
19.11.2012 00:25 -0,9 C 93 % 0,0 l/m 0,0 km/h (0 Bft) N 360 -1,9 C -1,4 C 0,0 km/h (0 Bft)
19.11.2012 00:30 -0,7 C 93 % 0,0 l/m 0,0 km/h (0 Bft) N 360 -1,7 C -1,5 C 0,0 km/h (0 Bft)
19.11.2012 00:35 -0,6 C 93 % 0,0 l/m 0,0 km/h (0 Bft) NW 315 -1,6 C -1,5 C 0,0 km/h (0 Bft)
19.11.2012 00:40 -1,0 C 93 % 0,0 l/m 0,0 km/h (0 Bft) NW 315 -2,0 C -1,4 C 0,0 km/h (0 Bft)
19.11.2012 00:45 -1,0 C 93 % 0,0 l/m 0,0 km/h (0 Bft) N-NW 337 -2,0 C -1,5 C 0,0 km/h (0 Bft)
19.11.2012 00:50 -0,6 C 93 % 0,0 l/m 0,0 km/h (0 Bft) N-NO 22 -1,6 C -1,5 C 0,0 km/h (0 Bft)
19.11.2012 00:55 -0,4 C 93 % 0,0 l/m 0,0 km/h (0 Bft) N-NO 22 -1,4 C -1,4 C 0,0 km/h (0 Bft)
19.11.2012 01:00 -0,9 C 93 % 0,0 l/m 0,0 km/h (0 Bft) O 90 -1,9 C -1,3 C 0,0 km/h (0 Bft)
19.11.2012 01:05 -1,2 C 93 % 0,0 l/m 0,0 km/h (0 Bft) O-NO 67 -2,2 C -1,5 C 0,0 km/h (0 Bft)
19.11.2012 01:10 -1,2 C 93 % 0,0 l/m 0,0 km/h (0 Bft) N-NO 22 -2,2 C -1,7 C 0,0 km/h (0 Bft)
19.11.2012 01:15 -0,9 C 93 % 0,0 l/m 0,0 km/h (0 Bft) N-NO 22 -1,9 C -1,7 C 0,0 km/h (0 Bft)
19.11.2012 01:20 -0,7 C 93 % 0,0 l/m 0,2 km/h (0 Bft) N-NO 22 -1,7 C -1,6 C 2,1 km/h (1 Bft)
19.11.2012 01:25 -0,7 C 93 % 0,0 l/m 0,2 km/h (0 Bft) N-NO 22 -1,7 C -1,4 C 0,0 km/h (0 Bft)
19.11.2012 01:30 -0,4 C 93 % 0,0 l/m 0,0 km/h (0 Bft) NO 45 -1,4 C -1,4 C 1,8 km/h (1 Bft)
19.11.2012 01:35 -0,4 C 94 % 0,0 l/m 0,0 km/h (0 Bft) NO 45 -1,2 C -1,3 C 0,0 km/h (0 Bft)
19.11.2012 01:40 -1,1 C 93 % 0,0 l/m 0,2 km/h (0 Bft) O 90 -2,1 C -1,4 C 0,0 km/h (0 Bft)
19.11.2012 01:45 -1,2 C 93 % 0,0 l/m 0,2 km/h (0 Bft) N-NO 22 -2,2 C -1,6 C 0,0 km/h (0 Bft)
19.11.2012 01:50 -0,6 C 94 % 0,0 l/m 0,0 km/h (0 Bft) N-NO 22 -1,4 C -1,5 C 0,0 km/h (0 Bft)
19.11.2012 01:55 -1,0 C 93 % 0,0 l/m 0,0 km/h (0 Bft) N-NW 337 -2,0 C -1,4 C 0,0 km/h (0 Bft)
19.11.2012 02:00 -0,9 C 93 % 0,0 l/m 0,0 km/h (0 Bft) N-NO 22 -1,9 C -1,7 C 0,0 km/h (0 Bft)
19.11.2012 02:05 -1,1 C 93 % 0,0 l/m 0,0 km/h (0 Bft) N 360 -2,1 C -1,6 C 0,0 km/h (0 Bft)
19.11.2012 02:10 -1,2 C 93 % 0,0 l/m 0,0 km/h (0 Bft) N-NW 337 -2,2 C -1,6 C 0,0 km/h (0 Bft)
19.11.2012 02:15 -1,3 C 93 % 0,0 l/m 0,0 km/h (0 Bft) N-NW 337 -2,3 C -1,7 C 0,0 km/h (0 Bft)
19.11.2012 02:20 -1,6 C 93 % 0,0 l/m 0,0 km/h (0 Bft) N-NW 337 -2,6 C -1,8 C 0,0 km/h (0 Bft)
19.11.2012 02:25 -1,5 C 93 % 0,0 l/m 0,0 km/h (0 Bft) N 360 -2,5 C -1,9 C 0,0 km/h (0 Bft)
19.11.2012 02:30 -0,9 C 93 % 0,0 l/m 0,0 km/h (0 Bft) N 360 -1,9 C -1,9 C 0,0 km/h (0 Bft)
19.11.2012 02:35 -0,9 C 94 % 0,0 l/m 0,0 km/h (0 Bft) N 360 -1,7 C -1,9 C 1,6 km/h (1 Bft)
19.11.2012 02:40 -1,1 C 94 % 0,0 l/m 0,2 km/h (0 Bft) NW 315 -1,9 C -1,7 C 0,0 km/h (0 Bft)
19.11.2012 02:45 -1,3 C 93 % 0,0 l/m 0,2 km/h (0 Bft) NW 315 -2,3 C -1,6 C 0,0 km/h (0 Bft)
19.11.2012 02:50 -1,5 C 93 % 0,0 l/m 0,0 km/h (0 Bft) O-SO 112 -2,5 C -1,8 C 0,0 km/h (0 Bft)
19.11.2012 02:55 -1,2 C 93 % 0,0 l/m 0,0 km/h (0 Bft) O 90 -2,2 C -1,9 C 0,0 km/h (0 Bft)
19.11.2012 03:00 -1,4 C 93 % 0,0 l/m 0,0 km/h (0 Bft) O 90 -2,4 C -2,0 C 0,0 km/h (0 Bft)
19.11.2012 03:05 -1,5 C 93 % 0,0 l/m 0,0 km/h (0 Bft) O-SO 112 -2,5 C -2,1 C 0,0 km/h (0 Bft)
19.11.2012 03:10 -1,7 C 93 % 0,0 l/m 0,0 km/h (0 Bft) O 90 -2,7 C -2,3 C 0,0 km/h (0 Bft)
19.11.2012 03:15 -1,9 C 93 % 0,0 l/m 0,0 km/h (0 Bft) O 90 -2,9 C -2,3 C 0,0 km/h (0 Bft)
19.11.2012 03:20 -2,2 C 93 % 0,0 l/m 0,0 km/h (0 Bft) SO 135 -3,2 C -2,6 C 0,0 km/h (0 Bft)
19.11.2012 03:25 -2,0 C 93 % 0,0 l/m 0,0 km/h (0 Bft) O 90 -3,0 C -2,6 C 0,0 km/h (0 Bft)
19.11.2012 03:30 -1,7 C 93 % 0,0 l/m 0,0 km/h (0 Bft) O 90 -2,7 C -2,4 C 0,0 km/h (0 Bft)
19.11.2012 03:35 -1,4 C 93 % 0,0 l/m 0,0 km/h (0 Bft) O 90 -2,4 C -2,3 C 0,0 km/h (0 Bft)
19.11.2012 03:40 -1,4 C 93 % 0,0 l/m 0,0 km/h (0 Bft) O 90 -2,4 C -2,2 C 0,0 km/h (0 Bft)
19.11.2012 03:45 -1,6 C 93 % 0,0 l/m 0,0 km/h (0 Bft) O 90 -2,6 C -2,2 C 0,0 km/h (0 Bft)
19.11.2012 03:50 -1,3 C 94 % 0,0 l/m 0,0 km/h (0 Bft) N-NO 22 -2,1 C -2,2 C 0,0 km/h (0 Bft)
19.11.2012 03:55 -1,9 C 93 % 0,0 l/m 0,0 km/h (0 Bft) NO 45 -2,9 C -2,3 C 0,0 km/h (0 Bft)
19.11.2012 04:00 -2,2 C 93 % 0,0 l/m 0,0 km/h (0 Bft) NO 45 -3,2 C -2,6 C 0,0 km/h (0 Bft)
19.11.2012 04:05 -2,1 C 93 % 0,0 l/m 0,0 km/h (0 Bft) N 360 -3,1 C -2,7 C 0,0 km/h (0 Bft)
19.11.2012 04:10 -2,5 C 93 % 0,0 l/m 0,0 km/h (0 Bft) N 360 -3,5 C -2,8 C 0,0 km/h (0 Bft)
19.11.2012 04:15 -2,5 C 93 % 0,0 l/m 0,0 km/h (0 Bft) N 360 -3,5 C -3,0 C 0,0 km/h (0 Bft)
19.11.2012 04:20 -2,0 C 93 % 0,0 l/m 0,0 km/h (0 Bft) N 360 -3,0 C -2,8 C 0,0 km/h (0 Bft)
19.11.2012 04:25 -2,0 C 93 % 0,0 l/m 0,0 km/h (0 Bft) N 360 -3,0 C -2,8 C 0,0 km/h (0 Bft)
19.11.2012 04:30 -2,4 C 93 % 0,0 l/m 0,0 km/h (0 Bft) N 360 -3,4 C -2,7 C 0,0 km/h (0 Bft)
19.11.2012 04:35 -2,5 C 93 % 0,0 l/m 0,0 km/h (0 Bft) N 360 -3,5 C -2,7 C 0,0 km/h (0 Bft)
19.11.2012 04:40 -2,5 C 93 % 0,0 l/m 0,0 km/h (0 Bft) N 360 -3,5 C -3,0 C 0,0 km/h (0 Bft)
19.11.2012 04:45 -2,3 C 93 % 0,0 l/m 0,0 km/h (0 Bft) N 360 -3,3 C -3,0 C 0,0 km/h (0 Bft)
19.11.2012 04:50 -2,4 C 93 % 0,0 l/m 0,0 km/h (0 Bft) N 360 -3,4 C -2,9 C 0,0 km/h (0 Bft)
19.11.2012 04:55 -2,4 C 93 % 0,0 l/m 0,0 km/h (0 Bft) N 360 -3,4 C -2,8 C 0,0 km/h (0 Bft)
19.11.2012 05:00 -2,3 C 94 % 0,0 l/m 0,0 km/h (0 Bft) N 360 -3,1 C -2,8 C 0,0 km/h (0 Bft)
19.11.2012 05:05 -1,9 C 94 % 0,0 l/m 0,0 km/h (0 Bft) N 360 -2,7 C -2,8 C 0,0 km/h (0 Bft)
19.11.2012 05:10 -2,1 C 94 % 0,0 l/m 0,0 km/h (0 Bft) N 360 -2,9 C -2,8 C 0,0 km/h (0 Bft)
19.11.2012 05:15 -2,0 C 94 % 0,0 l/m 0,0 km/h (0 Bft) N 360 -2,8 C -2,9 C 0,0 km/h (0 Bft)
19.11.2012 05:20 -2,2 C 94 % 0,0 l/m 0,0 km/h (0 Bft) N 360 -3,0 C -2,8 C 0,0 km/h (0 Bft)
19.11.2012 05:25 -2,3 C 94 % 0,0 l/m 0,0 km/h (0 Bft) N 360 -3,1 C -2,7 C 0,0 km/h (0 Bft)
19.11.2012 05:30 -2,4 C 94 % 0,0 l/m 0,0 km/h (0 Bft) N 360 -3,2 C -2,7 C 0,0 km/h (0 Bft)
19.11.2012 05:35 -2,4 C 94 % 0,0 l/m 0,0 km/h (0 Bft) N-NO 22 -3,2 C -2,9 C 0,0 km/h (0 Bft)
19.11.2012 05:40 -2,3 C 94 % 0,0 l/m 0,0 km/h (0 Bft) N-NO 22 -3,1 C -2,9 C 0,0 km/h (0 Bft)
19.11.2012 05:45 -2,2 C 94 % 0,0 l/m 0,0 km/h (0 Bft) N-NO 22 -3,0 C -2,8 C 0,0 km/h (0 Bft)
19.11.2012 05:50 -2,2 C 94 % 0,0 l/m 0,0 km/h (0 Bft) N-NO 22 -3,0 C -2,7 C 0,0 km/h (0 Bft)
19.11.2012 05:55 -2,6 C 94 % 0,0 l/m 0,0 km/h (0 Bft) N-NO 22 -3,4 C -2,9 C 0,0 km/h (0 Bft)
19.11.2012 06:00 -2,8 C 94 % 0,0 l/m 0,0 km/h (0 Bft) O 90 -3,6 C -3,1 C 0,0 km/h (0 Bft)
19.11.2012 06:05 -2,9 C 94 % 0,0 l/m 0,0 km/h (0 Bft) O 90 -3,7 C -3,2 C 0,0 km/h (0 Bft)
19.11.2012 06:10 -2,8 C 94 % 0,0 l/m 0,0 km/h (0 Bft) NO 45 -3,6 C -3,3 C 0,0 km/h (0 Bft)
19.11.2012 06:15 -2,5 C 94 % 0,0 l/m 0,0 km/h (0 Bft) NO 45 -3,3 C -3,3 C 0,0 km/h (0 Bft)
19.11.2012 06:20 -2,2 C 94 % 0,0 l/m 0,0 km/h (0 Bft) N 360 -3,0 C -3,2 C 0,0 km/h (0 Bft)
19.11.2012 06:25 -2,4 C 94 % 0,0 l/m 0,0 km/h (0 Bft) N 360 -3,2 C -3,0 C 0,0 km/h (0 Bft)
19.11.2012 06:30 -2,5 C 94 % 0,0 l/m 0,0 km/h (0 Bft) N-NO 22 -3,3 C -3,0 C 0,0 km/h (0 Bft)
19.11.2012 06:35 -0,9 C 94 % 0,0 l/m 0,0 km/h (0 Bft) N 360 -1,7 C -3,2 C 1,6 km/h (1 Bft)
19.11.2012 06:40 -1,5 C 94 % 0,0 l/m 0,0 km/h (0 Bft) N 360 -2,3 C -3,1 C 0,0 km/h (0 Bft)
19.11.2012 06:45 -1,8 C 94 % 0,0 l/m 0,0 km/h (0 Bft) N 360 -2,6 C -3,0 C 0,0 km/h (0 Bft)
19.11.2012 06:50 -1,7 C 94 % 0,0 l/m 0,0 km/h (0 Bft) NO 45 -2,5 C -2,9 C 0,0 km/h (0 Bft)
19.11.2012 06:55 -1,8 C 94 % 0,0 l/m 0,0 km/h (0 Bft) NO 45 -2,6 C -2,9 C 0,0 km/h (0 Bft)
19.11.2012 07:00 -2,4 C 94 % 0,0 l/m 0,0 km/h (0 Bft) NO 45 -3,2 C -3,0 C 0,0 km/h (0 Bft)
19.11.2012 07:05 -2,6 C 94 % 0,0 l/m 0,0 km/h (0 Bft) N 360 -3,4 C -3,0 C 0,0 km/h (0 Bft)
19.11.2012 07:10 -2,6 C 94 % 0,0 l/m 0,0 km/h (0 Bft) N 360 -3,4 C -3,0 C 0,0 km/h (0 Bft)
19.11.2012 07:15 -2,6 C 94 % 0,0 l/m 0,0 km/h (0 Bft) O 90 -3,4 C -3,1 C 0,0 km/h (0 Bft)
19.11.2012 07:20 -2,5 C 94 % 0,0 l/m 0,0 km/h (0 Bft) O 90 -3,3 C -3,2 C 0,0 km/h (0 Bft)
19.11.2012 07:25 -2,8 C 94 % 0,0 l/m 0,0 km/h (0 Bft) O 90 -3,6 C -3,2 C 0,0 km/h (0 Bft)
19.11.2012 07:30 -2,6 C 94 % 0,0 l/m 0,0 km/h (0 Bft) O 90 -3,4 C -3,2 C 0,0 km/h (0 Bft)
19.11.2012 07:35 -2,5 C 94 % 0,0 l/m 0,0 km/h (0 Bft) O 90 -3,3 C -3,1 C 0,0 km/h (0 Bft)
19.11.2012 07:40 -2,2 C 94 % 0,0 l/m 0,0 km/h (0 Bft) NO 45 -3,0 C -3,1 C 0,0 km/h (0 Bft)
19.11.2012 07:45 -2,5 C 94 % 0,0 l/m 0,0 km/h (0 Bft) NO 45 -3,3 C -2,6 C 0,0 km/h (0 Bft)
19.11.2012 07:50 -2,9 C 94 % 0,0 l/m 0,0 km/h (0 Bft) O 90 -3,7 C -2,5 C 0,0 km/h (0 Bft)
19.11.2012 07:55 -2,9 C 94 % 0,0 l/m 0,0 km/h (0 Bft) O 90 -3,7 C -2,7 C 0,0 km/h (0 Bft)
19.11.2012 08:00 -2,2 C 94 % 0,0 l/m 0,0 km/h (0 Bft) NO 45 -3,0 C -2,8 C 0,0 km/h (0 Bft)
19.11.2012 08:05 -1,9 C 94 % 0,0 l/m 0,0 km/h (0 Bft) N-NO 22 -2,7 C -2,7 C 0,0 km/h (0 Bft)
19.11.2012 08:10 -2,3 C 94 % 0,0 l/m 0,0 km/h (0 Bft) N-NO 22 -3,1 C -2,7 C 0,0 km/h (0 Bft)
19.11.2012 08:15 -2,2 C 94 % 0,0 l/m 0,0 km/h (0 Bft) N-NO 22 -3,0 C -2,7 C 0,0 km/h (0 Bft)
19.11.2012 08:20 -2,2 C 94 % 0,0 l/m 0,0 km/h (0 Bft) NO 45 -3,0 C -2,7 C 0,0 km/h (0 Bft)
19.11.2012 08:25 -2,3 C 94 % 0,0 l/m 0,0 km/h (0 Bft) O 90 -3,1 C -2,6 C 0,0 km/h (0 Bft)
19.11.2012 08:30 -2,6 C 94 % 0,0 l/m 0,3 km/h (0 Bft) W-SW 247 -3,4 C -2,6 C 3,1 km/h (1 Bft)
19.11.2012 08:35 -2,7 C 94 % 0,0 l/m 0,3 km/h (0 Bft) W-NW 292 -3,5 C -2,7 C 0,0 km/h (0 Bft)
19.11.2012 08:40 -2,5 C 94 % 0,0 l/m 0,2 km/h (0 Bft) N 360 -3,3 C -2,8 C 0,0 km/h (0 Bft)
19.11.2012 08:45 -2,3 C 94 % 0,0 l/m 0,0 km/h (0 Bft) N-NW 337 -3,1 C -2,7 C 0,0 km/h (0 Bft)
19.11.2012 08:50 -2,0 C 94 % 0,0 l/m 0,0 km/h (0 Bft) N-NW 337 -2,8 C -2,4 C 0,0 km/h (0 Bft)
19.11.2012 08:55 -1,9 C 94 % 0,0 l/m 0,0 km/h (0 Bft) N-NW 337 -2,7 C -2,3 C 0,0 km/h (0 Bft)
19.11.2012 09:00 -1,9 C 94 % 0,0 l/m 0,0 km/h (0 Bft) N-NW 337 -2,7 C -2,3 C 0,0 km/h (0 Bft)
19.11.2012 09:05 -1,9 C 94 % 0,0 l/m 0,0 km/h (0 Bft) N-NW 337 -2,7 C -2,2 C 0,0 km/h (0 Bft)
19.11.2012 09:10 -1,9 C 94 % 0,0 l/m 0,0 km/h (0 Bft) N-NW 337 -2,7 C -2,2 C 0,0 km/h (0 Bft)
19.11.2012 09:15 -2,0 C 94 % 0,0 l/m 0,0 km/h (0 Bft) N-NW 337 -2,8 C -2,2 C 0,0 km/h (0 Bft)
19.11.2012 09:20 -2,1 C 94 % 0,0 l/m 0,0 km/h (0 Bft) N-NW 337 -2,9 C -2,2 C 0,0 km/h (0 Bft)
19.11.2012 09:25 -2,0 C 94 % 0,0 l/m 0,0 km/h (0 Bft) N-NW 337 -2,8 C -2,2 C 0,0 km/h (0 Bft)
19.11.2012 09:30 -1,8 C 94 % 0,0 l/m 0,0 km/h (0 Bft) NW 315 -2,6 C -2,2 C 0,0 km/h (0 Bft)
19.11.2012 09:35 -1,7 C 94 % 0,0 l/m 0,0 km/h (0 Bft) NW 315 -2,5 C -2,1 C 0,0 km/h (0 Bft)
19.11.2012 09:40 -1,6 C 94 % 0,0 l/m 0,0 km/h (0 Bft) N-NW 337 -2,4 C -1,9 C 0,0 km/h (0 Bft)
19.11.2012 09:45 -1,3 C 94 % 0,0 l/m 0,0 km/h (0 Bft) NW 315 -2,1 C -1,8 C 0,0 km/h (0 Bft)
19.11.2012 09:50 -1,1 C 94 % 0,0 l/m 0,0 km/h (0 Bft) N-NW 337 -1,9 C -1,5 C 0,0 km/h (0 Bft)
19.11.2012 09:55 -0,7 C 94 % 0,0 l/m 0,0 km/h (0 Bft) N-NW 337 -1,5 C -1,3 C 0,0 km/h (0 Bft)
19.11.2012 10:00 -0,6 C 94 % 0,0 l/m 0,0 km/h (0 Bft) NW 315 -1,4 C -1,0 C 0,0 km/h (0 Bft)
19.11.2012 10:05 -0,5 C 94 % 0,0 l/m 0,0 km/h (0 Bft) NW 315 -1,3 C -0,7 C 0,0 km/h (0 Bft)
19.11.2012 10:10 -0,1 C 94 % 0,0 l/m 0,0 km/h (0 Bft) N-NW 337 -0,9 C -0,5 C 0,0 km/h (0 Bft)
19.11.2012 10:15 0,0 C 95 % 0,0 l/m 0,0 km/h (0 Bft) N-NW 337 -0,7 C 0,1 C 0,0 km/h (0 Bft)
19.11.2012 10:20 0,0 C 95 % 0,0 l/m 0,0 km/h (0 Bft) N-NW 337 -0,7 C 1,0 C 0,0 km/h (0 Bft)
19.11.2012 10:25 0,1 C 95 % 0,0 l/m 0,0 km/h (0 Bft) N 360 -0,6 C 1,2 C 0,0 km/h (0 Bft)
19.11.2012 10:30 0,4 C 95 % 0,0 l/m 0,0 km/h (0 Bft) N 360 -0,3 C 1,8 C 0,0 km/h (0 Bft)
19.11.2012 10:35 0,5 C 95 % 0,0 l/m 0,0 km/h (0 Bft) N 360 -0,2 C 2,6 C 0,0 km/h (0 Bft)
19.11.2012 10:40 0,5 C 95 % 0,0 l/m 0,0 km/h (0 Bft) N 360 -0,2 C 5,3 C 0,0 km/h (0 Bft)
19.11.2012 10:45 0,6 C 95 % 0,0 l/m 0,0 km/h (0 Bft) N 360 -0,1 C 6,7 C 0,0 km/h (0 Bft)
19.11.2012 10:50 1,2 C 95 % 0,0 l/m 0,0 km/h (0 Bft) N 360 0,5 C 7,7 C 0,0 km/h (0 Bft)
19.11.2012 10:55 1,3 C 95 % 0,0 l/m 0,0 km/h (0 Bft) N 360 0,6 C 7,9 C 0,0 km/h (0 Bft)
19.11.2012 11:00 1,6 C 95 % 0,0 l/m 0,2 km/h (0 Bft) N 360 0,9 C 8,4 C 2,6 km/h (1 Bft)
19.11.2012 11:05 1,9 C 95 % 0,0 l/m 1,1 km/h (1 Bft) N 360 1,2 C 8,8 C 2,1 km/h (1 Bft)
19.11.2012 11:10 2,0 C 95 % 0,0 l/m 1,6 km/h (1 Bft) N-NO 22 1,3 C 9,4 C 3,7 km/h (1 Bft)
19.11.2012 11:15 2,1 C 95 % 0,0 l/m 1,0 km/h (0 Bft) N-NO 22 1,4 C 9,9 C 0,0 km/h (0 Bft)
19.11.2012 11:20 2,1 C 95 % 0,0 l/m 0,6 km/h (0 Bft) N-NW 337 1,4 C 10,4 C 1,9 km/h (1 Bft)
19.11.2012 11:25 2,2 C 95 % 0,0 l/m 0,3 km/h (0 Bft) N 360 1,5 C 10,8 C 0,0 km/h (0 Bft)
19.11.2012 11:30 2,2 C 95 % 0,0 l/m 0,2 km/h (0 Bft) N-NO 22 1,5 C 12,1 C 0,0 km/h (0 Bft)
19.11.2012 11:35 2,5 C 95 % 0,0 l/m 0,0 km/h (0 Bft) N-NW 337 1,8 C 12,3 C 0,0 km/h (0 Bft)
19.11.2012 11:40 2,7 C 95 % 0,0 l/m 0,0 km/h (0 Bft) N 360 2,0 C 12,3 C 0,0 km/h (0 Bft)
19.11.2012 11:45 2,9 C 95 % 0,0 l/m 0,3 km/h (0 Bft) NW 315 2,2 C 12,2 C 2,7 km/h (1 Bft)
19.11.2012 11:50 2,9 C 95 % 0,0 l/m 0,6 km/h (0 Bft) N 360 2,2 C 12,1 C 0,0 km/h (0 Bft)
19.11.2012 11:55 2,9 C 94 % 0,0 l/m 1,4 km/h (1 Bft) W-NW 292 2,0 C 11,9 C 5,1 km/h (1 Bft)
19.11.2012 12:00 2,7 C 94 % 0,0 l/m 1,8 km/h (1 Bft) NW 315 1,8 C 11,4 C 0,0 km/h (0 Bft)
19.11.2012 12:05 2,8 C 93 % 0,0 l/m 1,4 km/h (1 Bft) W-NW 292 1,8 C 11,7 C 2,3 km/h (1 Bft)
19.11.2012 12:10 2,8 C 93 % 0,0 l/m 1,4 km/h (1 Bft) W-NW 292 1,8 C 11,7 C 2,3 km/h (1 Bft)
19.11.2012 12:15 3,0 C 91 % 0,0 l/m 1,0 km/h (0 Bft) NW 315 1,7 C 11,3 C 2,9 km/h (1 Bft)
19.11.2012 12:20 3,2 C 90 % 0,0 l/m 1,6 km/h (1 Bft) W-NW 292 1,7 C 10,2 C 4,0 km/h (1 Bft)
19.11.2012 12:25 3,3 C 90 % 0,0 l/m 2,4 km/h (1 Bft) W 270 1,8 C 9,1 C 6,0 km/h (2 Bft)
19.11.2012 12:30 3,1 C 89 % 0,0 l/m 3,2 km/h (1 Bft) S-SW 202 1,5 C 7,9 C 7,6 km/h (2 Bft)
19.11.2012 12:35 3,2 C 89 % 0,0 l/m 3,5 km/h (1 Bft) W 270 1,6 C 7,1 C 2,7 km/h (1 Bft)
19.11.2012 12:40 3,2 C 89 % 0,0 l/m 2,4 km/h (1 Bft) W-SW 247 1,6 C 6,3 C 7,7 km/h (2 Bft)
19.11.2012 12:45 3,4 C 88 % 0,0 l/m 1,3 km/h (1 Bft) N 360 1,6 C 6,1 C 1,8 km/h (1 Bft)
19.11.2012 12:50 3,2 C 87 % 0,0 l/m 1,3 km/h (1 Bft) N-NW 337 1,2 C 6,1 C 3,2 km/h (1 Bft)
19.11.2012 12:55 3,4 C 88 % 0,0 l/m 1,1 km/h (1 Bft) W-NW 292 1,6 C 6,3 C 4,0 km/h (1 Bft)
19.11.2012 13:00 3,5 C 88 % 0,0 l/m 1,3 km/h (1 Bft) NW 315 1,7 C 7,0 C 0,0 km/h (0 Bft)
19.11.2012 13:05 3,8 C 88 % 0,0 l/m 1,4 km/h (1 Bft) N 360 2,0 C 7,5 C 0,0 km/h (0 Bft)
19.11.2012 13:10 3,8 C 88 % 0,0 l/m 0,3 km/h (0 Bft) N-NW 337 2,0 C 6,9 C 0,0 km/h (0 Bft)
19.11.2012 13:15 4,0 C 86 % 0,0 l/m 0,0 km/h (0 Bft) N 360 1,9 C 6,4 C 0,0 km/h (0 Bft)
19.11.2012 13:20 4,2 C 83 % 0,0 l/m 1,3 km/h (1 Bft) N 360 1,6 C 6,0 C 0,0 km/h (0 Bft)
19.11.2012 13:25 4,0 C 84 % 0,0 l/m 1,6 km/h (1 Bft) N 360 1,5 C 5,8 C 0,0 km/h (0 Bft)
19.11.2012 13:30 4,1 C 83 % 0,0 l/m 1,1 km/h (1 Bft) W-NW 292 1,5 C 5,6 C 2,4 km/h (1 Bft)
19.11.2012 13:35 3,9 C 85 % 0,0 l/m 1,0 km/h (0 Bft) N 360 1,6 C 5,5 C 0,0 km/h (0 Bft)
19.11.2012 13:40 3,9 C 85 % 0,0 l/m 0,2 km/h (0 Bft) S 180 1,6 C 5,5 C 0,0 km/h (0 Bft)
19.11.2012 13:45 4,0 C 85 % 0,0 l/m 0,3 km/h (0 Bft) SO 135 1,7 C 5,5 C 0,0 km/h (0 Bft)
19.11.2012 13:50 4,3 C 85 % 0,0 l/m 0,3 km/h (0 Bft) N-NO 22 2,0 C 5,5 C 0,0 km/h (0 Bft)
19.11.2012 13:55 4,4 C 85 % 0,0 l/m 0,0 km/h (0 Bft) NW 315 2,1 C 5,4 C 0,0 km/h (0 Bft)
19.11.2012 14:00 4,6 C 82 % 0,0 l/m 0,8 km/h (0 Bft) N-NO 22 1,8 C 5,2 C 2,6 km/h (1 Bft)
19.11.2012 14:05 4,8 C 79 % 0,0 l/m 1,6 km/h (1 Bft) N-NW 337 1,5 C 5,4 C 0,0 km/h (0 Bft)
19.11.2012 14:10 4,5 C 82 % 0,0 l/m 1,1 km/h (1 Bft) W-NW 292 1,7 C 5,4 C 1,8 km/h (1 Bft)
19.11.2012 14:15 4,3 C 83 % 0,0 l/m 0,2 km/h (0 Bft) N-NW 337 1,7 C 5,5 C 0,0 km/h (0 Bft)
19.11.2012 14:20 4,5 C 83 % 0,0 l/m 0,2 km/h (0 Bft) W-NW 292 1,9 C 5,5 C 0,0 km/h (0 Bft)
19.11.2012 14:25 4,7 C 82 % 0,0 l/m 0,2 km/h (0 Bft) N 360 1,9 C 5,5 C 0,0 km/h (0 Bft)
19.11.2012 14:30 4,6 C 82 % 0,0 l/m 0,5 km/h (0 Bft) N-NW 337 1,8 C 5,4 C 1,8 km/h (1 Bft)
19.11.2012 14:35 4,7 C 82 % 0,0 l/m 0,6 km/h (0 Bft) N 360 1,9 C 5,4 C 0,0 km/h (0 Bft)
19.11.2012 14:40 4,3 C 83 % 0,0 l/m 0,6 km/h (0 Bft) N-NW 337 1,7 C 5,3 C 0,0 km/h (0 Bft)
19.11.2012 14:45 4,5 C 83 % 0,0 l/m 0,3 km/h (0 Bft) N 360 1,9 C 5,3 C 1,9 km/h (1 Bft)
19.11.2012 14:50 4,6 C 83 % 0,0 l/m 0,0 km/h (0 Bft) N-NW 337 2,0 C 5,6 C 0,0 km/h (0 Bft)
19.11.2012 14:55 4,5 C 83 % 0,0 l/m 0,2 km/h (0 Bft) N 360 1,9 C 5,7 C 0,0 km/h (0 Bft)
19.11.2012 15:00 4,4 C 83 % 0,0 l/m 0,2 km/h (0 Bft) W-NW 292 1,8 C 5,6 C 0,0 km/h (0 Bft)
19.11.2012 15:05 4,0 C 84 % 0,0 l/m 0,6 km/h (0 Bft) O-SO 112 1,5 C 5,4 C 0,0 km/h (0 Bft)
19.11.2012 15:10 4,1 C 85 % 0,0 l/m 0,5 km/h (0 Bft) N 360 1,8 C 5,0 C 0,0 km/h (0 Bft)
19.11.2012 15:15 3,9 C 86 % 0,0 l/m 0,2 km/h (0 Bft) W-NW 292 1,8 C 4,7 C 0,0 km/h (0 Bft)
19.11.2012 15:20 3,9 C 86 % 0,0 l/m 0,6 km/h (0 Bft) N 360 1,8 C 4,4 C 1,6 km/h (1 Bft)
19.11.2012 15:25 3,7 C 86 % 0,0 l/m 0,5 km/h (0 Bft) N-NW 337 1,6 C 4,3 C 0,0 km/h (0 Bft)
19.11.2012 15:30 3,7 C 87 % 0,0 l/m 0,0 km/h (0 Bft) N 360 1,7 C 4,1 C 0,0 km/h (0 Bft)
19.11.2012 15:35 3,5 C 87 % 0,0 l/m 0,0 km/h (0 Bft) N 360 1,5 C 4,0 C 0,0 km/h (0 Bft)
19.11.2012 15:40 3,7 C 87 % 0,0 l/m 0,0 km/h (0 Bft) S-SW 202 1,7 C 3,8 C 0,0 km/h (0 Bft)
19.11.2012 15:45 3,3 C 87 % 0,0 l/m 0,0 km/h (0 Bft) N 360 1,3 C 3,6 C 0,0 km/h (0 Bft)
19.11.2012 15:50 3,1 C 88 % 0,0 l/m 0,0 km/h (0 Bft) N-NW 337 1,3 C 3,6 C 2,7 km/h (1 Bft)
19.11.2012 15:55 3,1 C 88 % 0,0 l/m 0,0 km/h (0 Bft) N-NW 337 1,3 C 3,4 C 0,0 km/h (0 Bft)
19.11.2012 16:00 3,2 C 89 % 0,0 l/m 0,0 km/h (0 Bft) N-NW 337 1,6 C 3,3 C 0,0 km/h (0 Bft)
19.11.2012 16:05 3,0 C 89 % 0,0 l/m 0,0 km/h (0 Bft) N 360 1,4 C 3,1 C 0,0 km/h (0 Bft)
19.11.2012 16:10 3,1 C 89 % 0,0 l/m 0,0 km/h (0 Bft) N-NO 22 1,5 C 2,8 C 0,0 km/h (0 Bft)
19.11.2012 16:15 3,1 C 89 % 0,0 l/m 0,0 km/h (0 Bft) N-NO 22 1,5 C 2,8 C 0,0 km/h (0 Bft)
19.11.2012 16:20 3,0 C 89 % 0,0 l/m 0,2 km/h (0 Bft) N-NO 22 1,4 C 2,7 C 0,0 km/h (0 Bft)
19.11.2012 16:25 2,9 C 91 % 0,0 l/m 0,2 km/h (0 Bft) N-NO 22 1,6 C 2,6 C 0,0 km/h (0 Bft)
19.11.2012 16:30 2,7 C 91 % 0,0 l/m 0,0 km/h (0 Bft) N-NO 22 1,4 C 2,3 C 0,0 km/h (0 Bft)
19.11.2012 16:35 2,6 C 91 % 0,0 l/m 0,0 km/h (0 Bft) N-NO 22 1,3 C 2,1 C 0,0 km/h (0 Bft)
19.11.2012 16:40 2,4 C 91 % 0,0 l/m 0,2 km/h (0 Bft) N 360 1,1 C 2,0 C 0,0 km/h (0 Bft)
19.11.2012 16:45 2,2 C 91 % 0,0 l/m 0,2 km/h (0 Bft) N-NO 22 0,9 C 1,8 C 0,0 km/h (0 Bft)
19.11.2012 16:50 2,0 C 91 % 0,0 l/m 0,0 km/h (0 Bft) N-NO 22 0,7 C 1,4 C 0,0 km/h (0 Bft)
19.11.2012 16:55 1,9 C 92 % 0,0 l/m 0,0 km/h (0 Bft) N 360 0,7 C 1,1 C 0,0 km/h (0 Bft)
19.11.2012 17:00 1,2 C 92 % 0,0 l/m 0,0 km/h (0 Bft) O-NO 67 0,0 C 0,6 C 0,0 km/h (0 Bft)
19.11.2012 17:05 0,9 C 92 % 0,0 l/m 0,0 km/h (0 Bft) N-NO 22 -0,2 C 0,3 C 0,0 km/h (0 Bft)
19.11.2012 17:10 1,3 C 92 % 0,0 l/m 0,0 km/h (0 Bft) N 360 0,1 C 0,2 C 0,0 km/h (0 Bft)
19.11.2012 17:15 1,4 C 93 % 0,0 l/m 0,0 km/h (0 Bft) N 360 0,4 C 0,2 C 0,0 km/h (0 Bft)
19.11.2012 17:20 0,8 C 93 % 0,0 l/m 0,2 km/h (0 Bft) N-NO 22 -0,2 C 0,1 C 0,0 km/h (0 Bft)
19.11.2012 17:25 0,9 C 93 % 0,0 l/m 0,2 km/h (0 Bft) N-NO 22 -0,1 C -0,1 C 0,0 km/h (0 Bft)
19.11.2012 17:30 0,7 C 93 % 0,0 l/m 0,0 km/h (0 Bft) N 360 -0,3 C -0,2 C 0,0 km/h (0 Bft)
19.11.2012 17:35 0,6 C 93 % 0,0 l/m 0,0 km/h (0 Bft) N-NO 22 -0,4 C -0,3 C 0,0 km/h (0 Bft)
19.11.2012 17:40 -0,1 C 93 % 0,0 l/m 0,0 km/h (0 Bft) NO 45 -1,1 C -0,7 C 0,0 km/h (0 Bft)
19.11.2012 17:45 -0,3 C 93 % 0,0 l/m 0,0 km/h (0 Bft) NO 45 -1,3 C -1,1 C 0,0 km/h (0 Bft)
19.11.2012 17:50 -0,4 C 93 % 0,0 l/m 0,0 km/h (0 Bft) NO 45 -1,4 C -1,2 C 0,0 km/h (0 Bft)
19.11.2012 17:55 -0,5 C 93 % 0,0 l/m 0,0 km/h (0 Bft) N 360 -1,5 C -1,3 C 0,0 km/h (0 Bft)
19.11.2012 18:00 -0,9 C 93 % 0,0 l/m 0,0 km/h (0 Bft) N 360 -1,9 C -1,3 C 0,0 km/h (0 Bft)
19.11.2012 18:05 -0,7 C 93 % 0,0 l/m 0,0 km/h (0 Bft) N 360 -1,7 C -1,3 C 0,0 km/h (0 Bft)
19.11.2012 18:10 -0,9 C 93 % 0,0 l/m 0,0 km/h (0 Bft) N 360 -1,9 C -1,4 C 0,0 km/h (0 Bft)
19.11.2012 18:15 -0,5 C 93 % 0,0 l/m 0,0 km/h (0 Bft) N 360 -1,5 C -1,4 C 0,0 km/h (0 Bft)
19.11.2012 18:20 -1,1 C 93 % 0,0 l/m 0,0 km/h (0 Bft) N 360 -2,1 C -1,6 C 0,0 km/h (0 Bft)
19.11.2012 18:25 -1,2 C 93 % 0,0 l/m 0,0 km/h (0 Bft) N 360 -2,2 C -1,7 C 0,0 km/h (0 Bft)
19.11.2012 18:30 -1,4 C 93 % 0,0 l/m 0,0 km/h (0 Bft) N 360 -2,4 C -2,1 C 0,0 km/h (0 Bft)
19.11.2012 18:35 -1,6 C 93 % 0,0 l/m 0,0 km/h (0 Bft) N 360 -2,6 C -2,3 C 0,0 km/h (0 Bft)
19.11.2012 18:40 -1,3 C 94 % 0,0 l/m 0,0 km/h (0 Bft) NO 45 -2,1 C -2,3 C 0,0 km/h (0 Bft)
19.11.2012 18:45 -1,4 C 94 % 0,0 l/m 0,0 km/h (0 Bft) O-SO 112 -2,2 C -2,2 C 0,0 km/h (0 Bft)
19.11.2012 18:50 -1,5 C 94 % 0,0 l/m 0,0 km/h (0 Bft) O 90 -2,3 C -2,4 C 0,0 km/h (0 Bft)
19.11.2012 18:52 -2,0 C 94 % 0,0 l/m 0,0 km/h (0 Bft) O-SO 112 -2,8 C -2,4 C 0,0 km/h (0 Bft)
19.11.2012 18:57 -1,8 C 94 % 0,0 l/m 0,0 km/h (0 Bft) O 90 -2,6 C -2,5 C 0,0 km/h (0 Bft)
19.11.2012 19:02 -1,8 C 94 % 0,0 l/m 0,0 km/h (0 Bft) O 90 -2,6 C -2,5 C 0,0 km/h (0 Bft)
19.11.2012 19:05 -1,6 C 94 % 0,0 l/m 0,0 km/h (0 Bft) O-SO 112 -2,4 C -2,4 C 0,0 km/h (0 Bft)
19.11.2012 19:10 -1,3 C 94 % 0,0 l/m 0,0 km/h (0 Bft) O-SO 112 -2,1 C -2,2 C 0,0 km/h (0 Bft)
19.11.2012 19:15 -1,3 C 94 % 0,0 l/m 0,0 km/h (0 Bft) O-SO 112 -2,1 C -2,1 C 0,0 km/h (0 Bft)
19.11.2012 19:20 -1,3 C 94 % 0,0 l/m 0,0 km/h (0 Bft) O-SO 112 -2,1 C -2,0 C 0,0 km/h (0 Bft)
19.11.2012 19:25 -1,2 C 95 % 0,0 l/m 0,0 km/h (0 Bft) O-SO 112 -1,9 C -1,9 C 0,0 km/h (0 Bft)
19.11.2012 19:30 -1,2 C 95 % 0,0 l/m 0,0 km/h (0 Bft) O 90 -1,9 C -1,8 C 0,0 km/h (0 Bft)
19.11.2012 19:35 -1,3 C 95 % 0,0 l/m 0,0 km/h (0 Bft) O-SO 112 -2,0 C -1,7 C 1,9 km/h (1 Bft)
19.11.2012 19:40 -1,1 C 95 % 0,0 l/m 0,0 km/h (0 Bft) O-SO 112 -1,8 C -1,6 C 0,0 km/h (0 Bft)
19.11.2012 19:45 -1,1 C 95 % 0,0 l/m 0,0 km/h (0 Bft) O 90 -1,8 C -1,5 C 0,0 km/h (0 Bft)
19.11.2012 19:50 -0,9 C 95 % 0,0 l/m 0,0 km/h (0 Bft) O 90 -1,6 C -1,3 C 0,0 km/h (0 Bft)
19.11.2012 19:55 -0,9 C 95 % 0,0 l/m 0,0 km/h (0 Bft) O 90 -1,6 C -1,2 C 0,0 km/h (0 Bft)
19.11.2012 20:00 -0,8 C 95 % 0,0 l/m 0,0 km/h (0 Bft) O 90 -1,5 C -0,9 C 0,0 km/h (0 Bft)
19.11.2012 20:05 -0,8 C 95 % 0,0 l/m 0,5 km/h (0 Bft) O 90 -1,5 C -0,9 C 2,3 km/h (1 Bft)
19.11.2012 20:10 -0,8 C 95 % 0,0 l/m 1,1 km/h (1 Bft) O 90 -1,5 C -1,0 C 0,0 km/h (0 Bft)
19.11.2012 20:15 -0,8 C 95 % 0,0 l/m 1,1 km/h (1 Bft) O 90 -1,5 C -1,0 C 3,5 km/h (1 Bft)
19.11.2012 20:20 -0,9 C 95 % 0,0 l/m 1,6 km/h (1 Bft) O 90 -1,6 C -1,1 C 3,2 km/h (1 Bft)
19.11.2012 20:25 -1,0 C 95 % 0,0 l/m 2,4 km/h (1 Bft) O 90 -1,7 C -1,2 C 1,9 km/h (1 Bft)
19.11.2012 20:30 -0,9 C 95 % 0,0 l/m 1,0 km/h (0 Bft) O 90 -1,6 C -1,2 C 0,0 km/h (0 Bft)
19.11.2012 20:35 -0,7 C 96 % 0,0 l/m 0,2 km/h (0 Bft) O 90 -1,3 C -1,2 C 0,0 km/h (0 Bft)
19.11.2012 20:40 -0,7 C 96 % 0,0 l/m 0,2 km/h (0 Bft) O 90 -1,3 C -1,3 C 0,0 km/h (0 Bft)
19.11.2012 20:45 -0,8 C 96 % 0,0 l/m 0,2 km/h (0 Bft) O 90 -1,4 C -1,3 C 0,0 km/h (0 Bft)
19.11.2012 20:50 -1,1 C 96 % 0,0 l/m 0,3 km/h (0 Bft) O 90 -1,7 C -1,4 C 0,0 km/h (0 Bft)
19.11.2012 20:55 -1,1 C 96 % 0,0 l/m 0,3 km/h (0 Bft) O 90 -1,7 C -1,5 C 0,0 km/h (0 Bft)
19.11.2012 21:00 -1,1 C 96 % 0,0 l/m 0,5 km/h (0 Bft) O 90 -1,7 C -1,6 C 1,9 km/h (1 Bft)
19.11.2012 21:05 -1,1 C 96 % 0,0 l/m 0,6 km/h (0 Bft) O 90 -1,7 C -1,6 C 1,6 km/h (1 Bft)
19.11.2012 21:10 -1,1 C 96 % 0,0 l/m 0,5 km/h (0 Bft) O 90 -1,7 C -1,6 C 0,0 km/h (0 Bft)
19.11.2012 21:15 -1,1 C 96 % 0,0 l/m 0,2 km/h (0 Bft) O 90 -1,7 C -1,6 C 0,0 km/h (0 Bft)
19.11.2012 21:20 -1,2 C 96 % 0,0 l/m 0,2 km/h (0 Bft) O 90 -1,8 C -1,6 C 0,0 km/h (0 Bft)
19.11.2012 21:25 -1,2 C 96 % 0,0 l/m 0,2 km/h (0 Bft) O 90 -1,8 C -1,6 C 0,0 km/h (0 Bft)
19.11.2012 21:30 -1,3 C 96 % 0,0 l/m 0,3 km/h (0 Bft) O 90 -1,9 C -1,7 C 0,0 km/h (0 Bft)
19.11.2012 21:35 -1,3 C 96 % 0,0 l/m 0,5 km/h (0 Bft) O 90 -1,9 C -1,7 C 0,0 km/h (0 Bft)
19.11.2012 21:40 -1,4 C 96 % 0,0 l/m 0,2 km/h (0 Bft) O 90 -2,0 C -1,8 C 0,0 km/h (0 Bft)
19.11.2012 21:45 -1,5 C 96 % 0,0 l/m 0,0 km/h (0 Bft) O 90 -2,1 C -1,9 C 0,0 km/h (0 Bft)
19.11.2012 21:50 -1,5 C 96 % 0,0 l/m 0,2 km/h (0 Bft) O 90 -2,1 C -2,0 C 0,0 km/h (0 Bft)
19.11.2012 21:55 -1,6 C 96 % 0,0 l/m 0,3 km/h (0 Bft) O 90 -2,2 C -2,0 C 0,0 km/h (0 Bft)
19.11.2012 22:00 -1,5 C 96 % 0,0 l/m 0,3 km/h (0 Bft) O 90 -2,1 C -2,1 C 0,0 km/h (0 Bft)
19.11.2012 22:05 -1,5 C 96 % 0,0 l/m 0,0 km/h (0 Bft) O 90 -2,1 C -2,1 C 0,0 km/h (0 Bft)
19.11.2012 22:10 -1,5 C 96 % 0,0 l/m 0,0 km/h (0 Bft) O 90 -2,1 C -2,1 C 0,0 km/h (0 Bft)
19.11.2012 22:15 -1,5 C 96 % 0,0 l/m 0,2 km/h (0 Bft) O 90 -2,1 C -2,1 C 1,6 km/h (1 Bft)
19.11.2012 22:20 -1,6 C 96 % 0,0 l/m 0,2 km/h (0 Bft) O 90 -2,2 C -2,1 C 0,0 km/h (0 Bft)
19.11.2012 22:25 -1,7 C 96 % 0,0 l/m 0,0 km/h (0 Bft) O 90 -2,3 C -2,1 C 0,0 km/h (0 Bft)
19.11.2012 22:30 -1,7 C 96 % 0,0 l/m 0,0 km/h (0 Bft) O 90 -2,3 C -2,2 C 0,0 km/h (0 Bft)
19.11.2012 22:35 -1,8 C 96 % 0,0 l/m 0,0 km/h (0 Bft) O 90 -2,4 C -2,2 C 0,0 km/h (0 Bft)
19.11.2012 22:40 -1,8 C 96 % 0,0 l/m 0,0 km/h (0 Bft) O 90 -2,4 C -2,2 C 0,0 km/h (0 Bft)
19.11.2012 22:45 -1,8 C 96 % 0,0 l/m 0,0 km/h (0 Bft) O 90 -2,4 C -2,3 C 0,0 km/h (0 Bft)
19.11.2012 22:50 -2,0 C 96 % 0,0 l/m 0,0 km/h (0 Bft) O 90 -2,6 C -2,4 C 0,0 km/h (0 Bft)
19.11.2012 22:55 -2,1 C 96 % 0,0 l/m 0,0 km/h (0 Bft) O 90 -2,6 C -2,5 C 0,0 km/h (0 Bft)
19.11.2012 23:00 -2,2 C 96 % 0,0 l/m 0,0 km/h (0 Bft) O 90 -2,7 C -2,7 C 0,0 km/h (0 Bft)
19.11.2012 23:05 -2,3 C 96 % 0,0 l/m 0,0 km/h (0 Bft) O 90 -2,8 C -2,8 C 0,0 km/h (0 Bft)
19.11.2012 23:10 -2,4 C 95 % 0,0 l/m 0,0 km/h (0 Bft) O 90 -3,1 C -3,1 C 0,0 km/h (0 Bft)
19.11.2012 23:15 -2,4 C 95 % 0,0 l/m 0,0 km/h (0 Bft) O 90 -3,1 C -3,1 C 0,0 km/h (0 Bft)
19.11.2012 23:20 -2,4 C 95 % 0,0 l/m 0,0 km/h (0 Bft) O 90 -3,1 C -3,0 C 0,0 km/h (0 Bft)
19.11.2012 23:25 -2,5 C 95 % 0,0 l/m 0,0 km/h (0 Bft) O 90 -3,2 C -3,1 C 0,0 km/h (0 Bft)
19.11.2012 23:30 -2,5 C 95 % 0,0 l/m 0,0 km/h (0 Bft) O 90 -3,2 C -3,2 C 0,0 km/h (0 Bft)
19.11.2012 23:35 -2,6 C 95 % 0,0 l/m 0,6 km/h (0 Bft) O 90 -3,3 C -3,2 C 2,6 km/h (1 Bft)
19.11.2012 23:40 -2,8 C 95 % 0,0 l/m 1,0 km/h (0 Bft) O 90 -3,5 C -3,3 C 0,0 km/h (0 Bft)
19.11.2012 23:45 -3,1 C 95 % 0,0 l/m 0,6 km/h (0 Bft) O 90 -3,8 C -3,5 C 0,0 km/h (0 Bft)
19.11.2012 23:50 -3,4 C 95 % 0,0 l/m 0,0 km/h (0 Bft) O 90 -4,1 C -3,8 C 0,0 km/h (0 Bft)
19.11.2012 23:55 -3,2 C 95 % 0,0 l/m 0,0 km/h (0 Bft) O 90 -3,9 C -3,9 C 0,0 km/h (0 Bft)
_ Min-Zeit 23:50 14:05 - 23:55 - - 23:50 23:55 23:55
Minimum _ -3,4 C 79 % - 0,0 km/h (0 Bft) - - -4,1 C -3,9 C 0,0 km/h (0 Bft)
_ Max-Zeit 14:05 23:05 23:55 12:35 - - 11:50 11:40 12:40
Maximum _ 4,8 C 96 % 0,0 l/m 3,5 km/h
W (1 Bft)
- - 2,2 C 12,3 C 7,7 km/h
W-SW (2 Bft)
Durchschnitt _ -0,2 C 93 % #0,0 l/m 0,2 km/h (0 Bft) W-NW - -1,3 C 0,2 C 0,4 km/h (0 Bft)